createdAt,value
2017-09-29T00:01:45.732Z,51.50
2017-09-29T00:04:13.188Z,57.17
2017-09-29T00:06:40.650Z,55.70
2017-09-29T00:09:08.132Z,52.40
2017-09-29T00:11:35.982Z,52.00
2017-09-29T00:14:03.451Z,56.43
2017-09-29T00:16:30.988Z,60.27
2017-09-29T00:18:58.447Z,53.13
2017-09-29T00:21:26.187Z,55.73
2017-09-29T00:23:53.642Z,50.07
2017-09-29T00:26:21.104Z,56.07
2017-09-29T00:28:48.604Z,56.80
2017-09-29T00:31:16.059Z,58.50
2017-09-29T00:33:43.528Z,53.90
2017-09-29T00:36:10.999Z,54.43
2017-09-29T00:38:38.450Z,65.70
2017-09-29T00:41:05.914Z,59.93
2017-09-29T00:43:33.399Z,60.57
2017-09-29T00:46:00.868Z,61.57
2017-09-29T00:48:28.323Z,57.07
2017-09-29T00:50:55.811Z,57.23
2017-09-29T00:53:23.792Z,66.00
2017-09-29T00:55:51.246Z,65.60
2017-09-29T00:58:18.740Z,76.17
2017-09-29T01:00:46.196Z,59.63
2017-09-29T01:03:13.666Z,63.10
2017-09-29T01:05:41.127Z,63.30
2017-09-29T01:08:08.710Z,58.63
2017-09-29T01:10:36.426Z,60.60
2017-09-29T01:13:03.892Z,60.93
2017-09-29T01:15:31.352Z,59.30
2017-09-29T01:17:58.825Z,69.37
2017-09-29T01:20:26.683Z,60.97
2017-09-29T01:22:54.551Z,66.20
2017-09-29T01:25:22.408Z,60.77
2017-09-29T01:27:50.293Z,62.47
2017-09-29T01:30:17.752Z,57.27
2017-09-29T01:32:45.234Z,66.93
2017-09-29T01:35:12.803Z,67.87
2017-09-29T01:37:40.258Z,61.17
2017-09-29T01:40:07.718Z,59.57
2017-09-29T01:42:35.211Z,60.10
2017-09-29T01:45:03.071Z,59.37
2017-09-29T01:47:30.926Z,56.93
2017-09-29T01:49:58.774Z,65.33
2017-09-29T01:52:26.240Z,58.30
2017-09-29T01:54:53.697Z,57.37
2017-09-29T01:57:21.178Z,56.10
2017-09-29T01:59:48.635Z,55.17
2017-09-29T02:02:16.095Z,55.57
2017-09-29T02:04:43.576Z,63.07
2017-09-29T02:07:11.046Z,56.83
2017-09-29T02:09:38.507Z,60.90
2017-09-29T02:12:06.016Z,62.90
2017-09-29T02:14:33.470Z,61.53
2017-09-29T02:17:00.928Z,60.10
2017-09-29T02:19:28.410Z,64.67
2017-09-29T02:21:55.874Z,66.90
2017-09-29T02:24:23.332Z,63.13
2017-09-29T02:26:50.838Z,56.37
2017-09-29T02:29:18.693Z,61.07
2017-09-29T02:31:46.153Z,64.07
2017-09-29T02:34:14.022Z,61.50
2017-09-29T02:36:41.887Z,61.60
2017-09-29T02:39:09.751Z,57.80
2017-09-29T02:41:37.635Z,61.17
2017-09-29T02:44:05.098Z,63.03
2017-09-29T02:46:32.567Z,71.27
2017-09-29T02:49:00.050Z,64.07
2017-09-29T02:51:27.511Z,66.30
2017-09-29T02:53:54.980Z,63.70
2017-09-29T02:56:23.039Z,55.50
2017-09-29T02:58:54.927Z,59.07
2017-09-29T03:01:26.886Z,62.03
2017-09-29T03:03:56.056Z,59.47
2017-09-29T03:06:23.516Z,62.40
2017-09-29T03:08:51.003Z,60.57
2017-09-29T03:11:18.663Z,61.57
2017-09-29T03:13:46.141Z,62.80
2017-09-29T03:16:13.818Z,66.60
2017-09-29T03:18:41.285Z,66.60
2017-09-29T03:21:08.738Z,67.27
2017-09-29T03:23:36.202Z,59.33
2017-09-29T03:26:03.694Z,65.50
2017-09-29T03:28:31.150Z,60.27
2017-09-29T03:30:58.617Z,66.67
2017-09-29T03:33:26.102Z,65.77
2017-09-29T03:35:53.567Z,64.50
2017-09-29T03:38:21.023Z,66.77
2017-09-29T03:40:48.531Z,61.60
2017-09-29T03:43:15.993Z,58.97
2017-09-29T03:45:43.466Z,66.13
2017-09-29T03:48:10.948Z,62.83
2017-09-29T03:50:39.195Z,63.10
2017-09-29T03:53:06.960Z,66.40
2017-09-29T03:55:34.963Z,68.47
2017-09-29T03:58:03.611Z,64.53
2017-09-29T04:00:31.075Z,56.43
2017-09-29T04:02:58.554Z,56.10
2017-09-29T04:05:26.020Z,59.43
2017-09-29T04:07:53.892Z,64.27
2017-09-29T04:10:22.151Z,55.10
2017-09-29T04:12:49.606Z,67.47
2017-09-29T04:15:17.067Z,64.50
2017-09-29T04:17:44.638Z,62.67
2017-09-29T04:20:12.503Z,63.63
2017-09-29T04:22:40.359Z,61.23
2017-09-29T04:25:08.251Z,58.10
2017-09-29T04:27:35.710Z,56.40
2017-09-29T04:30:03.172Z,62.03
2017-09-29T04:32:30.668Z,66.20
2017-09-29T04:34:58.131Z,65.63
2017-09-29T04:37:25.595Z,57.70
2017-09-29T04:39:53.066Z,65.47
2017-09-29T04:42:20.939Z,60.23
2017-09-29T04:44:48.831Z,64.70
2017-09-29T04:47:16.291Z,58.80
2017-09-29T04:49:43.746Z,60.40
2017-09-29T04:52:11.227Z,61.90
2017-09-29T04:54:38.684Z,57.70
2017-09-29T04:57:06.150Z,61.13
2017-09-29T04:59:33.639Z,61.63
2017-09-29T05:02:01.496Z,61.83
2017-09-29T05:04:29.360Z,64.17
2017-09-29T05:06:57.322Z,62.43
2017-09-29T05:09:25.174Z,59.77
2017-09-29T05:11:52.866Z,60.53
2017-09-29T05:14:20.342Z,70.97
2017-09-29T05:16:47.814Z,61.37
2017-09-29T05:19:15.270Z,62.00
2017-09-29T05:21:43.066Z,67.97
2017-09-29T05:24:10.517Z,61.30
2017-09-29T05:26:37.975Z,62.97
2017-09-29T05:29:05.448Z,65.83
2017-09-29T05:31:33.309Z,66.57
2017-09-29T05:34:01.159Z,67.03
2017-09-29T05:36:29.030Z,70.27
2017-09-29T05:38:56.921Z,61.13
2017-09-29T05:41:24.788Z,69.97
2017-09-29T05:43:52.921Z,68.83
2017-09-29T05:46:20.737Z,60.87
2017-09-29T05:48:48.207Z,68.57
2017-09-29T05:51:15.944Z,66.80
2017-09-29T05:53:43.439Z,66.73
2017-09-29T05:56:10.907Z,71.20
2017-09-29T05:58:38.404Z,63.13
2017-09-29T06:01:05.900Z,69.13
2017-09-29T06:03:33.390Z,72.57
2017-09-29T06:06:01.268Z,66.20
2017-09-29T06:08:29.132Z,62.80
2017-09-29T06:10:56.996Z,61.20
2017-09-29T06:13:24.848Z,63.43
2017-09-29T06:15:52.311Z,66.17
2017-09-29T06:18:19.779Z,64.97
2017-09-29T06:20:47.831Z,66.40
2017-09-29T06:23:15.290Z,64.43
2017-09-29T06:25:42.751Z,66.57
2017-09-29T06:28:10.632Z,67.00
2017-09-29T06:30:38.087Z,68.63
2017-09-29T06:33:05.555Z,60.87
2017-09-29T06:35:33.051Z,64.77
2017-09-29T06:38:00.516Z,63.13
2017-09-29T06:40:27.980Z,60.67
2017-09-29T06:42:55.487Z,63.73
2017-09-29T06:45:22.948Z,66.43
2017-09-29T06:47:50.402Z,62.50
2017-09-29T06:50:17.891Z,59.43
2017-09-29T06:52:45.346Z,67.23
2017-09-29T06:55:12.809Z,71.13
2017-09-29T06:57:40.668Z,61.50
2017-09-29T07:00:08.128Z,65.80
2017-09-29T07:02:35.588Z,56.43
2017-09-29T07:05:03.150Z,61.47
2017-09-29T07:07:30.602Z,57.20
2017-09-29T07:09:58.059Z,61.93
2017-09-29T07:12:25.559Z,57.03
2017-09-29T07:14:53.023Z,59.57
2017-09-29T07:17:20.481Z,55.97
2017-09-29T07:19:47.978Z,58.87
2017-09-29T07:22:15.843Z,57.27
2017-09-29T07:24:48.078Z,52.93
2017-09-29T07:27:17.127Z,55.37
2017-09-29T07:29:46.288Z,55.20
2017-09-29T07:32:15.733Z,54.97
2017-09-29T07:34:43.197Z,50.73
2017-09-29T07:37:10.755Z,51.30
2017-09-29T07:39:38.465Z,53.13
2017-09-29T07:42:05.918Z,54.80
2017-09-29T07:44:33.375Z,55.23
2017-09-29T07:47:00.862Z,56.33
2017-09-29T07:49:28.327Z,52.37
2017-09-29T07:51:55.783Z,54.07
2017-09-29T07:54:23.278Z,51.50
2017-09-29T07:56:50.730Z,50.40
2017-09-29T07:59:18.195Z,51.80
2017-09-29T08:01:45.678Z,52.90
2017-09-29T08:04:13.534Z,55.00
2017-09-29T08:06:41.391Z,55.57
2017-09-29T08:09:08.881Z,50.93
2017-09-29T08:11:36.341Z,50.07
2017-09-29T08:14:03.804Z,49.17
2017-09-29T08:16:31.459Z,59.57
2017-09-29T08:18:58.920Z,49.97
2017-09-29T08:21:26.375Z,49.73
2017-09-29T08:23:53.842Z,53.70
2017-09-29T08:26:21.298Z,49.50
2017-09-29T08:28:48.791Z,50.00
2017-09-29T08:31:16.248Z,49.23
2017-09-29T08:33:43.713Z,48.80
2017-09-29T08:36:11.181Z,48.73
2017-09-29T08:38:38.634Z,54.10
2017-09-29T08:41:06.487Z,47.70
2017-09-29T08:43:33.971Z,53.10
2017-09-29T08:46:01.427Z,54.53
2017-09-29T08:48:28.882Z,51.93
2017-09-29T08:50:56.363Z,47.53
2017-09-29T08:53:23.828Z,54.83
2017-09-29T08:55:51.283Z,48.77
2017-09-29T08:58:19.246Z,48.00
2017-09-29T09:00:46.710Z,45.93
2017-09-29T09:03:14.167Z,46.07
2017-09-29T09:05:41.635Z,45.23
2017-09-29T09:08:09.098Z,45.77
2017-09-29T09:10:36.556Z,44.53
2017-09-29T09:13:04.053Z,43.93
2017-09-29T09:15:31.526Z,46.73
2017-09-29T09:17:59.011Z,45.80
2017-09-29T09:20:26.651Z,43.00
2017-09-29T09:22:54.116Z,42.03
2017-09-29T09:25:21.571Z,44.33
2017-09-29T09:27:49.043Z,46.13
2017-09-29T09:30:16.507Z,51.33
2017-09-29T09:32:43.964Z,42.57
2017-09-29T09:35:11.447Z,42.20
2017-09-29T09:37:38.906Z,43.47
2017-09-29T09:40:06.373Z,42.27
2017-09-29T09:42:33.855Z,39.77
2017-09-29T09:45:01.314Z,42.10
2017-09-29T09:47:28.770Z,40.37
2017-09-29T09:49:56.243Z,39.17
2017-09-29T09:52:23.704Z,44.13
2017-09-29T09:54:51.166Z,40.80
2017-09-29T09:57:18.623Z,41.27
2017-09-29T09:59:46.485Z,43.93
2017-09-29T10:02:13.962Z,38.97
2017-09-29T10:04:41.423Z,38.50
2017-09-29T10:07:08.880Z,37.67
2017-09-29T10:09:36.350Z,40.30
2017-09-29T10:12:03.815Z,37.83
2017-09-29T10:14:31.266Z,39.20
2017-09-29T10:16:58.959Z,39.83
2017-09-29T10:19:26.414Z,37.50
2017-09-29T10:21:53.876Z,38.17
2017-09-29T10:24:21.374Z,38.43
2017-09-29T10:26:48.836Z,38.90
2017-09-29T10:29:16.306Z,40.97
2017-09-29T10:31:44.103Z,41.60
2017-09-29T10:34:11.563Z,36.00
2017-09-29T10:36:39.019Z,36.17
2017-09-29T10:39:06.491Z,34.97
2017-09-29T10:41:34.350Z,36.97
2017-09-29T10:44:01.811Z,34.70
2017-09-29T10:46:29.815Z,35.23
2017-09-29T10:48:57.283Z,33.37
2017-09-29T10:51:24.750Z,35.13
2017-09-29T10:53:52.231Z,33.57
2017-09-29T10:56:19.689Z,32.97
2017-09-29T10:58:47.143Z,32.40
2017-09-29T11:01:15.315Z,32.43
2017-09-29T11:03:42.770Z,30.63
2017-09-29T11:06:10.230Z,31.03
2017-09-29T11:08:37.731Z,29.63
2017-09-29T11:11:05.192Z,35.93
2017-09-29T11:13:32.651Z,33.30
2017-09-29T11:16:00.106Z,32.73
2017-09-29T11:18:27.571Z,30.50
2017-09-29T11:20:55.305Z,30.63
2017-09-29T11:23:22.764Z,31.30
2017-09-29T11:25:50.220Z,28.90
2017-09-29T11:28:17.798Z,28.17
2017-09-29T11:30:45.254Z,27.70
2017-09-29T11:33:12.711Z,30.00
2017-09-29T11:35:40.213Z,31.27
2017-09-29T11:38:08.068Z,30.57
2017-09-29T11:40:35.932Z,31.53
2017-09-29T11:43:03.402Z,29.33
2017-09-29T11:45:31.254Z,28.67
2017-09-29T11:47:59.110Z,29.40
2017-09-29T11:50:26.586Z,29.80
2017-09-29T11:52:54.439Z,28.37
2017-09-29T11:55:22.298Z,28.00
2017-09-29T11:57:50.025Z,28.77
2017-09-29T12:00:17.478Z,28.30
2017-09-29T12:02:44.943Z,28.63
2017-09-29T12:05:12.430Z,28.20
2017-09-29T12:07:40.309Z,27.90
2017-09-29T12:10:08.156Z,27.00
2017-09-29T12:12:35.653Z,26.87
2017-09-29T12:15:03.115Z,27.50
2017-09-29T12:17:30.570Z,28.43
2017-09-29T12:19:58.303Z,28.00
2017-09-29T12:22:26.159Z,28.70
2017-09-29T12:24:54.015Z,28.90
2017-09-29T12:27:21.907Z,25.90
2017-09-29T12:29:49.363Z,26.57
2017-09-29T12:32:16.817Z,26.03
2017-09-29T12:34:44.330Z,25.03
2017-09-29T12:37:11.798Z,26.07
2017-09-29T12:39:39.655Z,25.70
2017-09-29T12:42:07.266Z,23.07
2017-09-29T12:44:34.715Z,23.57
2017-09-29T12:47:02.174Z,24.20
2017-09-29T12:49:29.638Z,25.57
2017-09-29T12:51:57.118Z,25.80
2017-09-29T12:54:24.577Z,25.80
2017-09-29T12:56:52.047Z,24.37
2017-09-29T12:59:19.520Z,24.00
2017-09-29T13:01:47.377Z,23.57
2017-09-29T13:04:14.835Z,23.50
2017-09-29T13:06:42.719Z,24.03
2017-09-29T13:09:10.180Z,24.80
2017-09-29T13:11:37.634Z,25.00
2017-09-29T13:14:05.110Z,24.27
2017-09-29T13:16:32.570Z,24.53
2017-09-29T13:19:00.026Z,23.90
2017-09-29T13:21:27.501Z,22.33
2017-09-29T13:23:54.954Z,22.90
2017-09-29T13:26:22.733Z,22.13
2017-09-29T13:28:50.187Z,24.53
2017-09-29T13:31:17.654Z,22.40
2017-09-29T13:33:45.122Z,24.03
2017-09-29T13:36:12.971Z,22.77
2017-09-29T13:38:40.431Z,22.23
2017-09-29T13:41:08.583Z,22.10
2017-09-29T13:43:36.043Z,22.90
2017-09-29T13:46:03.502Z,23.47
2017-09-29T13:48:31.155Z,24.17
2017-09-29T13:50:58.610Z,23.17
2017-09-29T13:53:26.068Z,24.00
2017-09-29T13:55:53.530Z,26.53
2017-09-29T13:58:21.136Z,22.90
2017-09-29T14:00:48.603Z,23.93
2017-09-29T14:03:16.063Z,22.80
2017-09-29T14:05:43.525Z,23.63
2017-09-29T14:08:10.994Z,21.97
2017-09-29T14:10:38.454Z,22.27
2017-09-29T14:13:05.915Z,21.93
2017-09-29T14:15:33.387Z,23.10
2017-09-29T14:18:01.234Z,23.73
2017-09-29T14:20:28.690Z,23.70
2017-09-29T14:22:56.339Z,26.40
2017-09-29T14:25:23.803Z,24.33
2017-09-29T14:27:51.258Z,22.97
2017-09-29T14:30:18.919Z,25.47
2017-09-29T14:32:46.374Z,25.50
2017-09-29T14:35:13.825Z,25.43
2017-09-29T14:37:41.306Z,24.03
2017-09-29T14:40:09.156Z,24.37
2017-09-29T14:42:36.605Z,24.07
2017-09-29T14:45:04.078Z,27.83
2017-09-29T14:47:31.938Z,27.00
2017-09-29T14:49:59.402Z,24.80
2017-09-29T14:52:27.256Z,25.00
2017-09-29T14:54:54.826Z,23.30
2017-09-29T14:57:22.683Z,24.93
2017-09-29T14:59:50.537Z,25.70
2017-09-29T15:02:18.010Z,26.33
2017-09-29T15:04:45.862Z,27.97
2017-09-29T15:07:13.717Z,24.87
2017-09-29T15:09:41.188Z,28.23
2017-09-29T15:12:09.043Z,25.47
2017-09-29T15:14:36.507Z,24.47
2017-09-29T15:17:04.474Z,24.90
2017-09-29T15:19:32.329Z,26.50
2017-09-29T15:21:59.782Z,26.57
2017-09-29T15:24:27.523Z,25.67
2017-09-29T15:26:54.499Z,26.23
2017-09-29T15:29:22.351Z,25.83
2017-09-29T15:31:49.826Z,29.77
2017-09-29T15:34:17.679Z,27.57
2017-09-29T15:36:45.540Z,27.80
2017-09-29T15:39:13.693Z,26.63
2017-09-29T15:41:41.156Z,30.30
2017-09-29T15:44:08.611Z,26.70
2017-09-29T15:46:36.483Z,25.43
2017-09-29T15:49:03.939Z,26.57
2017-09-29T15:51:31.402Z,26.77
2017-09-29T15:53:59.277Z,26.67
2017-09-29T15:56:27.139Z,28.67
2017-09-29T15:58:54.998Z,28.20
2017-09-29T16:01:22.485Z,27.90
2017-09-29T16:03:49.961Z,28.20
2017-09-29T16:06:17.410Z,27.33
2017-09-29T16:08:44.902Z,29.20
2017-09-29T16:11:12.367Z,30.80
2017-09-29T16:13:39.823Z,29.33
2017-09-29T16:16:07.682Z,29.67
2017-09-29T16:18:35.132Z,30.67
2017-09-29T16:21:02.590Z,30.80
2017-09-29T16:23:30.240Z,31.13
2017-09-29T16:25:57.703Z,28.73
2017-09-29T16:28:25.162Z,31.50
2017-09-29T16:30:52.638Z,29.30
2017-09-29T16:33:20.487Z,32.17
2017-09-29T16:35:47.944Z,31.80
2017-09-29T16:38:15.698Z,29.80
2017-09-29T16:40:43.159Z,31.30
2017-09-29T16:43:10.610Z,29.70
2017-09-29T16:45:38.098Z,30.03
2017-09-29T16:48:05.569Z,29.17
2017-09-29T16:50:33.127Z,29.60
2017-09-29T16:53:00.583Z,30.03
2017-09-29T16:55:28.046Z,30.97
2017-09-29T16:57:55.539Z,30.23
2017-09-29T17:00:23.002Z,30.47
2017-09-29T17:02:50.473Z,30.13
2017-09-29T17:05:18.338Z,31.13
2017-09-29T17:07:46.190Z,31.70
2017-09-29T17:10:14.053Z,32.47
2017-09-29T17:12:41.703Z,31.27
2017-09-29T17:15:09.165Z,32.47
2017-09-29T17:17:36.626Z,30.43
2017-09-29T17:20:04.131Z,31.67
2017-09-29T17:22:31.600Z,32.63
2017-09-29T17:24:59.071Z,31.20
2017-09-29T17:27:26.536Z,32.87
2017-09-29T17:29:53.990Z,33.70
2017-09-29T17:32:21.869Z,34.67
2017-09-29T17:34:49.310Z,35.40
2017-09-29T17:37:16.770Z,32.50
2017-09-29T17:39:44.626Z,33.63
2017-09-29T17:42:12.150Z,32.17
2017-09-29T17:44:39.618Z,36.17
2017-09-29T17:47:07.090Z,35.27
2017-09-29T17:49:34.549Z,36.30
2017-09-29T17:52:02.010Z,37.20
2017-09-29T17:54:29.489Z,34.67
2017-09-29T17:56:57.339Z,35.13
2017-09-29T17:59:24.802Z,34.70
2017-09-29T18:01:52.679Z,34.47
2017-09-29T18:04:20.531Z,37.60
2017-09-29T18:06:48.393Z,39.00
2017-09-29T18:09:15.882Z,40.13
2017-09-29T18:11:43.342Z,33.87
2017-09-29T18:14:11.605Z,35.37
2017-09-29T18:16:39.322Z,39.10
2017-09-29T18:19:06.808Z,35.67
2017-09-29T18:21:34.715Z,35.07
2017-09-29T18:24:02.255Z,34.43
2017-09-29T18:26:29.778Z,35.20
2017-09-29T18:28:57.268Z,38.60
2017-09-29T18:31:24.746Z,38.30
2017-09-29T18:33:52.244Z,35.57
2017-09-29T18:36:20.180Z,36.30
2017-09-29T18:38:48.006Z,33.40
2017-09-29T18:41:19.162Z,35.83
2017-09-29T18:43:46.622Z,34.67
2017-09-29T18:46:24.048Z,34.10
2017-09-29T18:48:51.580Z,32.27
2017-09-29T18:51:19.156Z,31.97
2017-09-29T18:53:46.733Z,31.40
2017-09-29T18:56:14.675Z,29.90
2017-09-29T18:58:42.586Z,30.57
2017-09-29T19:01:10.140Z,33.57
2017-09-29T19:03:37.693Z,34.00
2017-09-29T19:06:05.693Z,31.07
2017-09-29T19:08:33.318Z,32.77
2017-09-29T19:11:00.980Z,29.83
2017-09-29T19:13:28.727Z,29.33
2017-09-29T19:15:56.364Z,34.80
2017-09-29T19:18:24.084Z,33.33
2017-09-29T19:20:51.677Z,33.07
2017-09-29T19:23:19.289Z,33.40
2017-09-29T19:25:46.908Z,31.30
2017-09-29T19:28:15.210Z,28.13
2017-09-29T19:30:42.805Z,31.73
2017-09-29T19:33:10.449Z,34.43
2017-09-29T19:35:38.105Z,30.23
2017-09-29T19:38:05.700Z,29.10
2017-09-29T19:40:33.289Z,29.07
2017-09-29T19:43:01.722Z,32.80
2017-09-29T19:45:29.345Z,28.70
2017-09-29T19:47:56.978Z,29.00
2017-09-29T19:50:24.624Z,27.77
2017-09-29T19:52:53.271Z,30.77
2017-09-29T19:55:20.948Z,30.40
2017-09-29T19:57:48.726Z,29.30
2017-09-29T20:00:16.384Z,27.00
2017-09-29T20:02:44.029Z,27.23
2017-09-29T20:05:11.781Z,26.90
2017-09-29T20:07:39.708Z,27.13
2017-09-29T20:10:07.819Z,26.37
2017-09-29T20:12:35.921Z,29.40
2017-09-29T20:15:03.972Z,28.80
2017-09-29T20:17:31.589Z,28.30
2017-09-29T20:19:59.252Z,26.20
2017-09-29T20:22:26.889Z,26.07
2017-09-29T20:24:54.470Z,26.83
2017-09-29T20:27:22.036Z,25.87
2017-09-29T20:29:49.496Z,25.30
2017-09-29T20:32:16.958Z,26.87
2017-09-29T20:34:44.422Z,28.10
2017-09-29T20:37:11.905Z,24.97
2017-09-29T20:39:39.875Z,24.80
2017-09-29T20:42:07.334Z,25.53
2017-09-29T20:44:34.794Z,33.73
2017-09-29T20:47:02.255Z,27.10
2017-09-29T20:49:29.714Z,25.93
2017-09-29T20:51:57.870Z,24.60
2017-09-29T20:54:25.326Z,25.87
2017-09-29T20:56:52.808Z,25.43
2017-09-29T20:59:21.050Z,27.23
2017-09-29T21:01:48.520Z,26.13
2017-09-29T21:04:15.975Z,27.37
2017-09-29T21:06:43.431Z,25.90
2017-09-29T21:09:11.288Z,27.30
2017-09-29T21:11:39.258Z,27.33
2017-09-29T21:14:06.790Z,25.43
2017-09-29T21:16:34.242Z,27.27
2017-09-29T21:19:01.746Z,25.43
2017-09-29T21:21:29.603Z,26.90
2017-09-29T21:23:57.459Z,23.83
2017-09-29T21:26:24.935Z,26.37
2017-09-29T21:28:52.785Z,26.10
2017-09-29T21:31:20.646Z,25.23
2017-09-29T21:33:48.546Z,24.43
2017-09-29T21:36:16.011Z,24.60
2017-09-29T21:38:43.476Z,27.87
2017-09-29T21:41:10.948Z,23.70
2017-09-29T21:43:38.414Z,23.60
2017-09-29T21:46:05.875Z,23.80
2017-09-29T21:48:33.730Z,29.07
2017-09-29T21:51:01.195Z,27.63
2017-09-29T21:53:28.646Z,26.43
2017-09-29T21:55:56.135Z,24.83
2017-09-29T21:58:23.988Z,24.20
2017-09-29T22:00:51.843Z,28.13
2017-09-29T22:03:19.326Z,24.00
2017-09-29T22:05:47.167Z,24.93
2017-09-29T22:08:14.622Z,24.07
2017-09-29T22:10:42.090Z,32.27
2017-09-29T22:13:09.948Z,23.57
2017-09-29T22:15:37.803Z,25.93
2017-09-29T22:18:05.262Z,26.03
2017-09-29T22:20:33.118Z,25.43
2017-09-29T22:23:00.610Z,30.27
2017-09-29T22:25:28.066Z,28.43
2017-09-29T22:27:55.521Z,24.20
2017-09-29T22:30:23.089Z,25.40
2017-09-29T22:32:50.547Z,26.73
2017-09-29T22:35:18.011Z,27.80
2017-09-29T22:37:45.502Z,28.13
2017-09-29T22:40:12.959Z,26.60
2017-09-29T22:42:40.421Z,26.03
2017-09-29T22:45:07.898Z,26.80
2017-09-29T22:47:35.746Z,26.70
2017-09-29T22:50:03.201Z,26.63
2017-09-29T22:52:30.946Z,25.40
2017-09-29T22:54:58.405Z,26.83
2017-09-29T22:57:25.863Z,34.20
2017-09-29T22:59:53.345Z,26.77
2017-09-29T23:02:20.820Z,26.87
2017-09-29T23:04:48.279Z,25.70
2017-09-29T23:07:15.991Z,26.33
2017-09-29T23:09:43.447Z,33.00
2017-09-29T23:12:10.898Z,27.60
2017-09-29T23:14:38.669Z,26.67
2017-09-29T23:17:06.123Z,27.27
2017-09-29T23:19:33.581Z,26.43
2017-09-29T23:22:01.478Z,25.93
2017-09-29T23:24:28.946Z,28.40
2017-09-29T23:26:56.407Z,27.53
2017-09-29T23:29:23.886Z,25.33
2017-09-29T23:31:51.351Z,29.00
2017-09-29T23:34:18.810Z,29.07
2017-09-29T23:36:46.277Z,27.80
2017-09-29T23:39:13.740Z,28.60
2017-09-29T23:41:41.586Z,27.57
2017-09-29T23:44:09.044Z,27.47
2017-09-29T23:46:36.498Z,30.67
2017-09-29T23:49:03.954Z,28.60
2017-09-29T23:51:31.411Z,27.77
2017-09-29T23:53:58.870Z,27.60
2017-09-29T23:56:26.331Z,28.40
2017-09-29T23:58:53.791Z,28.87
